Flag for United Kingdom

Past Weather in 52°17'09.3"N, 1°54'36.6"W, United Kingdom — Yesterday and Last 2 Weeks

Currently: 79 °F. Warm. (Weather station: Shirley - MADIS Station, United Kingdom). See more current weather

Past Weather in 52°17'09.3"N, 1°54'36.6"W — Graph

°F

52°17'09.3"N, 1°54'36.6"W Temperature Yesterday

Maximum temperature yesterday: 83 °F (at 5:00 pm)
Minimum temperature yesterday: 54 °F (at 5:30 am)
Average temperature yesterday: 68 °F

High & Low Weather Summary for the Past Weeks

 TemperatureHumidityPressure
High83 °F (Aug 8, 5:00 pm)94% (Aug 7, 6:30 am)29.89 "Hg (Aug 7, 6:30 am)
Low46 °F (Aug 6, 4:15 am)35% (Aug 7, 3:45 pm)29.38 "Hg (Jul 25, 6:00 pm)
Average64 °F63%29.76 "Hg
* Reported Jul 25 6:00 pm — Aug 9 6:15 pm, 52°17'09.3"N, 1°54'36.6"W. Weather by CustomWeather, © 2022

Note: Actual official high and low records may vary slightly from our data, if they occured in-between our weather recording intervals... More about our weather records

52°17'09.3"N, 1°54'36.6"W Weather History for the Previous 24 Hours

Scroll right to see more
 ConditionsComfort  
Time TempWeatherWind HumidityBarometerVisibility
6:15 pm
Tue, Aug 9
83 °FPleasantly warm.No wind36%29.81 "HgN/A
5:45 pm83 °FPleasantly warm.1 mph38%29.80 "HgN/A
5:00 pm82 °FPleasantly warm.No wind39%29.81 "HgN/A
4:00 pm83 °FPleasantly warm.1 mph38%29.82 "HgN/A
3:00 pm83 °FWarm.1 mph40%29.83 "HgN/A
2:30 pm83 °FPleasantly warm.2 mph37%29.83 "HgN/A
1:15 pm82 °FWarm.2 mph43%29.86 "HgN/A
1:00 pm81 °FWarm.2 mph44%29.86 "HgN/A
12:30 pm80 °FWarm.2 mph47%29.87 "HgN/A
11:30 am77 °FWarm.1 mph51%29.87 "HgN/A
11:00 am76 °FMild.1 mph55%29.88 "HgN/A
9:45 am66 °FMild.1 mph71%29.89 "HgN/A
9:00 am63 °FMild.No wind75%29.88 "HgN/A
8:00 am60 °FCool.No wind80%29.87 "HgN/A
7:30 am58 °FCool.No wind82%29.87 "HgN/A
7:00 am57 °FCool.No wind85%29.86 "HgN/A
6:30 am56 °FCool.No wind87%29.86 "HgN/A
6:15 am56 °FCool.No wind88%29.86 "HgN/A
5:00 am57 °FCool.No wind85%29.85 "HgN/A
4:30 am57 °FCool.No wind85%29.84 "HgN/A
4:00 am57 °FCool.No wind87%29.84 "HgN/A
3:30 am57 °FCool.No wind82%29.84 "HgN/A
3:00 am60 °FCool.No wind79%29.84 "HgN/A
2:45 am60 °FCool.1 mph78%29.85 "HgN/A
1:45 am62 °FCool.1 mph74%29.85 "HgN/A
12:30 am64 °FMild.2 mph71%29.84 "HgN/A
11:30 pm
Mon, Aug 8
65 °FMild.2 mph68%29.84 "HgN/A
11:00 pm67 °FMild.3 mph64%29.83 "HgN/A
10:00 pm69 °FMild.4 mph57%29.83 "HgN/A
9:45 pm70 °FMild.4 mph55%29.82 "HgN/A
9:30 pm70 °FMild.2 mph52%29.82 "HgN/A
9:00 pm72 °FMild.2 mph50%29.81 "HgN/A
8:45 pm72 °FMild.2 mph50%29.80 "HgN/A
8:15 pm74 °FMild.1 mph47%29.79 "HgN/A
8:00 pm75 °FMild.2 mph46%29.79 "HgN/A
Weather by CustomWeather, © 2022

See weather overview